Time;durP1;ratioP1;P1;durP2;ratioP2;P2;SDS_P1;SDS_P2;PMS_P1;PMS_P2;Temp;Humidity;BMP_temperature;BMP_pressure;BME280_temperature;BME280_humidity;BME280_pressure;Samples;Min_cycle;Max_cycle;Signal;HPM_P1;HPM_P2
2024/04/12 00:01:02;;;;;;;13.40;6.70;;;;;;;17.75;46.63;100031.66;78145;1296;3052736;-61
2024/04/12 00:03:29;;;;;;;10.50;6.00;;;;;;;17.71;46.69;100031.08;79405;1295;3011829;-63
2024/04/12 00:06:05;;;;;;;12.50;6.70;;;;;;;17.71;47.05;100032.73;78976;1301;3012376;-61
2024/04/12 00:08:34;;;;;;;13.70;5.70;;;;;;;17.67;46.97;100026.83;78947;1296;3013054;-62
2024/04/12 00:11:03;;;;;;;14.70;5.20;;;;;;;17.69;47.06;100025.23;79364;1296;3012750;-63
2024/04/12 00:13:32;;;;;;;14.50;6.20;;;;;;;17.73;46.74;100024.42;79354;1296;3011607;-65
2024/04/12 00:16:03;;;;;;;12.40;6.40;;;;;;;17.79;46.76;100026.22;78202;1298;3050488;-61
2024/04/12 00:18:30;;;;;;;13.90;6.50;;;;;;;17.85;46.66;100027.31;79489;1298;3011657;-62
2024/04/12 00:21:00;;;;;;;20.70;6.70;;;;;;;17.93;46.56;100026.55;79180;1295;3013294;-61
2024/04/12 00:23:32;;;;;;;17.40;6.80;;;;;;;17.98;46.53;100025.63;79239;1301;3013718;-63
2024/04/12 00:26:01;;;;;;;16.20;6.90;;;;;;;18.02;46.47;100026.87;78387;1295;3052411;-62
2024/04/12 00:28:31;;;;;;;13.70;6.10;;;;;;;18.01;46.41;100032.80;79324;1298;3013017;-70
2024/04/12 00:31:03;;;;;;;15.30;5.50;;;;;;;17.98;46.33;100029.33;78168;1298;3053499;-61
2024/04/12 00:33:32;;;;;;;15.70;6.10;;;;;;;17.92;46.42;100029.77;79411;1295;3012842;-65
2024/04/12 00:36:08;;;;;;;28.70;7.90;;;;;;;17.84;46.79;100026.17;78416;1301;3052330;-65
2024/04/12 00:38:38;;;;;;;15.90;7.10;;;;;;;17.82;46.53;100022.27;79080;1298;3013072;-65
2024/04/12 00:41:11;;;;;;;20.40;7.90;;;;;;;17.78;46.69;100022.71;79484;1298;3011821;-64
2024/04/12 00:43:45;;;;;;;21.80;9.60;;;;;;;17.79;47.11;100025.30;78220;1295;3068436;-65
2024/04/12 00:46:17;;;;;;;21.40;8.80;;;;;;;17.79;47.63;100023.94;79344;1296;3011612;-64
2024/04/12 00:48:46;;;;;;;18.20;10.50;;;;;;;17.83;48.09;100021.69;78112;1299;3055824;-60
2024/04/12 00:51:17;;;;;;;15.80;9.60;;;;;;;17.83;48.25;100023.04;79799;1295;3013798;-62
2024/04/12 00:53:51;;;;;;;19.30;9.60;;;;;;;17.81;48.34;100022.33;78155;1299;3050916;-59
2024/04/12 00:56:20;;;;;;;14.80;8.60;;;;;;;17.77;48.79;100025.11;79022;1295;3013361;-62
2024/04/12 00:58:47;;;;;;;15.40;7.70;;;;;;;17.68;49.53;100026.38;79381;1298;3018840;-59
2024/04/12 01:01:18;;;;;;;16.20;7.90;;;;;;;17.64;49.66;100023.70;79231;1301;3012820;-61
2024/04/12 01:03:47;;;;;;;18.20;6.60;;;;;;;17.56;50.25;100019.73;78235;1298;3051277;-61
2024/04/12 01:06:16;;;;;;;20.60;6.90;;;;;;;17.55;50.45;100015.76;79475;1296;3013123;-63
2024/04/12 01:08:44;;;;;;;12.30;6.70;;;;;;;17.55;50.53;100009.23;78433;1296;3052453;-62
2024/04/12 01:11:12;;;;;;;23.40;6.70;;;;;;;17.51;51.07;100010.44;79400;1298;3012982;-61
2024/04/12 01:13:40;;;;;;;12.30;6.60;;;;;;;17.50;50.93;100011.77;79441;1298;3011697;-62
2024/04/12 01:16:08;;;;;;;16.80;8.10;;;;;;;17.47;51.44;100005.75;78181;1298;3069227;-61
2024/04/12 01:18:34;;;;;;;16.60;7.30;;;;;;;17.42;51.63;100002.46;79589;1296;3020296;-61
2024/04/12 01:21:10;;;;;;;18.10;7.90;;;;;;;17.31;52.25;100007.95;79498;1296;3011884;-60
2024/04/12 01:23:43;;;;;;;17.00;8.30;;;;;;;17.25;52.60;100006.27;78264;1298;3053305;-63
2024/04/12 01:26:09;;;;;;;;;;;;;;;17.23;52.67;100000.99;79368;1294;3011768;-61
2024/04/12 01:28:38;;;;;;;25.40;10.90;;;;;;;17.08;53.17;100005.73;78232;1298;3052777;-62
2024/04/12 01:31:05;;;;;;;22.20;10.90;;;;;;;17.02;53.65;99996.08;79610;1298;3012898;-61
2024/04/12 01:33:36;;;;;;;22.40;10.80;;;;;;;16.97;54.19;99999.16;79449;1296;3013922;-61
2024/04/12 01:36:05;;;;;;;24.20;10.90;;;;;;;16.90;54.56;99994.73;78110;1298;3057327;-60
2024/04/12 01:38:36;;;;;;;26.10;11.90;;;;;;;16.85;54.95;99989.80;79495;1295;3013321;-62
2024/04/12 01:41:05;;;;;;;33.50;13.50;;;;;;;16.76;55.50;99991.90;78195;1298;3049507;-62
2024/04/12 01:43:38;;;;;;;28.80;15.40;;;;;;;16.70;56.02;99990.77;79462;1299;3013790;-60
2024/04/12 01:46:07;;;;;;;38.80;14.20;;;;;;;16.66;56.32;99986.27;78179;1296;3069715;-61
2024/04/12 01:48:35;;;;;;;30.20;14.80;;;;;;;16.63;56.50;99982.86;79387;1296;3011879;-62
2024/04/12 01:51:04;;;;;;;27.60;14.20;;;;;;;16.49;57.43;99990.11;78998;1295;3012875;-61
2024/04/12 01:53:37;;;;;;;42.00;22.40;;;;;;;16.51;57.72;99976.71;79532;1296;3013456;-61
2024/04/12 01:56:05;;;;;;;37.60;20.30;;;;;;;16.46;57.86;99979.16;78288;1298;3049938;-63
2024/04/12 01:58:34;;;;;;;39.20;18.80;;;;;;;16.38;58.53;99982.77;79491;1298;3015663;-60
2024/04/12 02:01:03;;;;;;;38.90;18.60;;;;;;;16.33;58.80;99984.42;79381;1295;3011447;-63
2024/04/12 02:03:31;;;;;;;50.90;21.60;;;;;;;16.28;59.25;99983.90;78166;1296;3052131;-60
2024/04/12 02:06:04;;;;;;;41.10;18.90;;;;;;;16.20;59.55;99983.81;79525;1296;3012971;-61
2024/04/12 02:08:35;;;;;;;47.70;18.60;;;;;;;16.13;60.13;99985.97;78382;1296;3054006;-64
2024/04/12 02:11:05;;;;;;;42.50;18.30;;;;;;;16.05;60.85;99982.30;79374;1299;3012995;-63
2024/04/12 02:13:37;;;;;;;45.00;19.70;;;;;;;15.98;61.30;99985.27;78253;1298;3053985;-59
2024/04/12 02:16:10;;;;;;;50.10;21.50;;;;;;;15.93;61.96;99984.57;79363;1301;3011533;-61
2024/04/12 02:18:38;;;;;;;56.80;24.20;;;;;;;15.91;62.23;99991.30;78119;1295;3050863;-64
2024/04/12 02:21:05;;;;;;;71.20;25.70;;;;;;;15.90;62.48;99988.73;79487;1298;3018998;-62
2024/04/12 02:23:37;;;;;;;76.50;26.20;;;;;;;15.87;63.29;99993.67;79433;1296;3011953;-59
2024/04/12 02:26:05;;;;;;;81.70;27.60;;;;;;;15.83;63.52;99989.94;78197;1299;3050341;-61
2024/04/12 02:28:40;;;;;;;67.10;24.50;;;;;;;15.79;63.99;99991.27;79541;1299;3013712;-61
2024/04/12 02:31:10;;;;;;;66.00;24.60;;;;;;;15.81;63.81;99995.34;78130;1298;3068692;-62
2024/04/12 02:33:37;;;;;;;59.30;23.20;;;;;;;15.74;63.95;99992.30;79515;1296;3012824;-61
2024/04/12 02:36:11;;;;;;;45.80;18.80;;;;;;;15.76;63.99;99989.70;79029;1294;3011660;-61
2024/04/12 02:38:43;;;;;;;44.40;17.90;;;;;;;15.72;64.41;99990.72;79619;1294;3011929;-62
2024/04/12 02:41:13;;;;;;;46.70;19.70;;;;;;;15.73;64.53;99992.19;78272;1295;3053528;-61
2024/04/12 02:43:41;;;;;;;48.80;21.50;;;;;;;15.73;64.58;99988.89;79402;1298;3011765;-62
2024/04/12 02:46:12;;;;;;;50.10;22.60;;;;;;;15.70;64.92;99992.84;78384;1299;3028448;-62
2024/04/12 02:48:44;;;;;;;55.90;23.60;;;;;;;15.65;64.95;99994.05;79525;1298;3011597;-62
2024/04/12 02:51:17;;;;;;;55.30;22.50;;;;;;;15.58;65.47;99995.58;78319;1298;3069977;-65
2024/04/12 02:53:50;;;;;;;42.30;19.10;;;;;;;15.57;65.45;100004.37;79375;1294;3011862;-64
2024/04/12 02:56:18;;;;;;;38.20;15.50;;;;;;;15.51;65.63;99998.02;78214;1298;3056770;-62
2024/04/12 02:58:46;;;;;;;45.60;15.10;;;;;;;15.46;66.08;100004.42;79249;1296;3013144;-61
2024/04/12 03:01:14;;;;;;;41.90;15.30;;;;;;;15.42;66.29;100007.00;79402;1296;3011577;-63
2024/04/12 03:03:51;;;;;;;30.60;13.70;;;;;;;15.43;66.19;100005.18;78319;1299;3052343;-61
2024/04/12 03:06:23;;;;;;;32.30;12.40;;;;;;;15.38;66.72;100007.98;78160;1298;3053125;-62
2024/04/12 03:08:51;;;;;;;28.50;12.90;;;;;;;15.35;66.53;100017.57;79285;1294;3012993;-62
2024/04/12 03:11:25;;;;;;;30.80;12.10;;;;;;;15.32;66.77;100009.30;78158;1298;3052306;-60
2024/04/12 03:13:59;;;;;;;27.20;12.10;;;;;;;15.28;67.09;100014.86;79529;1294;3012878;-60
2024/04/12 03:16:28;;;;;;;23.10;11.60;;;;;;;15.25;66.99;100014.89;78128;1294;3050090;-61
2024/04/12 03:18:55;;;;;;;25.10;12.90;;;;;;;15.27;67.08;100010.02;79496;1296;3013408;-61
2024/04/12 03:21:22;;;;;;;28.30;11.70;;;;;;;15.22;67.20;100018.36;79341;1296;3011856;-61
2024/04/12 03:23:50;;;;;;;27.70;12.90;;;;;;;15.21;67.16;100014.70;78094;1298;3051313;-61
2024/04/12 03:26:23;;;;;;;25.20;11.60;;;;;;;15.16;67.38;100012.58;79362;1298;3012992;-62
2024/04/12 03:28:54;;;;;;;23.10;11.40;;;;;;;15.17;67.21;100014.41;78020;1298;3056502;-61
2024/04/12 03:31:27;;;;;;;24.40;11.10;;;;;;;15.16;67.19;100015.41;79852;1298;3012905;-60
2024/04/12 03:33:55;;;;;;;26.70;10.90;;;;;;;15.19;67.14;100010.58;78205;1295;3053160;-62
2024/04/12 03:39:27;;;;;;;17.70;9.90;;;;;;;15.20;66.80;100015.29;78157;1298;3053452;-63
2024/04/12 03:42:05;;;;;;;23.70;9.30;;;;;;;15.24;66.59;100015.73;78050;1299;3069453;-59
2024/04/12 03:44:35;;;;;;;21.30;9.10;;;;;;;15.25;66.33;100017.71;78220;1299;3052898;-62
2024/04/12 03:47:07;;;;;;;22.40;9.10;;;;;;;15.26;66.00;100021.41;79469;1296;3013742;-61
2024/04/12 03:49:39;;;;;;;22.60;9.20;;;;;;;15.26;66.28;100020.65;78349;1295;3047989;-62
2024/04/12 03:52:11;;;;;;;26.00;9.70;;;;;;;15.25;66.12;100016.71;79358;1295;3011617;-62
2024/04/12 03:54:42;;;;;;;28.20;10.10;;;;;;;15.17;66.39;100020.41;77990;1298;3049763;-63
2024/04/12 03:57:09;;;;;;;18.50;8.70;;;;;;;15.15;66.34;100019.52;79685;1295;3011527;-63
2024/04/12 03:59:43;;;;;;;25.70;8.80;;;;;;;15.17;66.34;100017.11;78063;1298;3025870;-62
2024/04/12 04:02:11;;;;;;;17.30;8.70;;;;;;;15.13;66.45;100021.39;79198;1298;3011643;-62
2024/04/12 04:04:47;;;;;;;25.60;8.90;;;;;;;15.09;66.67;100025.95;77996;1296;3052622;-64
2024/04/12 04:07:16;;;;;;;19.60;7.10;;;;;;;15.02;66.69;100029.60;78125;1295;3055398;-62
2024/04/12 04:09:43;;;;;;;21.10;9.10;;;;;;;15.01;67.03;100029.89;80135;1294;3012748;-63
2024/04/12 04:12:16;;;;;;;22.00;8.20;;;;;;;15.00;66.82;100031.29;79616;1295;3012363;-62
2024/04/12 04:14:50;;;;;;;20.50;7.80;;;;;;;15.04;66.86;100029.79;78197;1298;3052967;-62
2024/04/12 04:17:29;;;;;;;18.00;7.60;;;;;;;15.01;66.92;100027.35;79426;1295;3011573;-64
2024/04/12 04:19:57;;;;;;;23.30;7.90;;;;;;;14.94;67.07;100028.16;78288;1295;3054781;-63
2024/04/12 04:22:49;;;;;;;21.80;8.50;;;;;;;14.87;67.42;100023.61;79648;1296;3014331;-60
2024/04/12 04:25:13;;;;;;;30.20;7.70;;;;;;;14.89;67.16;100024.65;78451;1295;3058788;-61
2024/04/12 04:27:40;;;;;;;17.70;8.00;;;;;;;14.91;67.11;100025.94;79358;1296;3011902;-61
2024/04/12 04:30:07;;;;;;;20.40;7.30;;;;;;;14.84;67.37;100027.66;79529;1298;3011552;-62
2024/04/12 04:32:35;;;;;;;14.40;7.10;;;;;;;14.78;67.34;100023.15;78468;1298;3052970;-60
2024/04/12 04:35:05;;;;;;;15.00;6.30;;;;;;;14.68;67.71;100030.55;79942;1298;3019251;-61
2024/04/12 04:37:37;;;;;;;18.00;5.70;;;;;;;14.68;67.67;100026.83;79047;1298;3011488;-63
2024/04/12 04:40:09;;;;;;;12.00;4.50;;;;;;;14.71;67.66;100026.98;79517;1298;3013067;-61
2024/04/12 04:42:45;;;;;;;11.30;5.10;;;;;;;14.66;67.65;100025.52;78444;1299;3057501;-60
2024/04/12 04:45:18;;;;;;;12.70;5.10;;;;;;;14.67;67.58;100026.40;78325;1296;3050464;-62
2024/04/12 04:47:45;;;;;;;14.10;4.90;;;;;;;14.68;67.56;100021.38;79662;1298;3011796;-60
2024/04/12 04:50:13;;;;;;;15.70;4.70;;;;;;;14.66;67.71;100025.25;78430;1295;3050643;-59
2024/04/12 04:52:40;;;;;;;9.90;4.50;;;;;;;14.63;67.79;100024.51;79622;1298;3013397;-61
2024/04/12 04:55:07;;;;;;;12.10;4.70;;;;;;;14.59;67.62;100024.39;79676;1296;3013616;-61
2024/04/12 04:57:39;;;;;;;15.60;4.50;;;;;;;14.59;67.59;100028.30;78204;1294;3051761;-59
2024/04/12 05:00:06;;;;;;;11.20;4.20;;;;;;;14.66;67.44;100020.06;79401;1294;3013457;-61
2024/04/12 05:02:36;;;;;;;9.20;4.10;;;;;;;14.64;67.36;100021.45;78987;1298;3011873;-64
2024/04/12 05:05:04;;;;;;;15.90;4.30;;;;;;;14.72;66.82;100020.89;79545;1296;3013567;-60
2024/04/12 05:07:34;;;;;;;17.40;4.70;;;;;;;14.69;66.91;100023.04;79525;1298;3011768;-61
2024/04/12 05:10:08;;;;;;;7.90;4.50;;;;;;;14.77;66.77;100018.12;78260;1294;3053379;-60
2024/04/12 05:12:40;;;;;;;15.70;4.20;;;;;;;14.85;66.45;100021.98;79447;1295;3011275;-61
2024/04/12 05:15:30;;;;;;;9.20;3.90;;;;;;;14.91;66.26;100020.69;78439;1298;3051531;-62
2024/04/12 05:18:03;;;;;;;12.30;3.90;;;;;;;14.95;65.85;100020.73;78320;1296;3057278;-61
2024/04/12 05:20:40;;;;;;;13.50;4.70;;;;;;;15.00;65.89;100020.40;79436;1296;3011788;-61
2024/04/12 05:23:11;;;;;;;11.90;4.00;;;;;;;15.08;65.63;100019.67;78177;1295;3053399;-60
2024/04/12 05:25:43;;;;;;;13.80;4.40;;;;;;;15.14;65.55;100016.27;79507;1301;3011628;-60
2024/04/12 05:28:12;;;;;;;11.30;4.50;;;;;;;15.20;65.23;100020.59;78446;1298;3052615;-60
2024/04/12 05:30:43;;;;;;;9.00;4.70;;;;;;;15.26;64.77;100015.40;79499;1298;3013458;-61
2024/04/12 05:33:11;;;;;;;9.60;4.30;;;;;;;15.33;64.97;100011.39;78245;1298;3052554;-60
2024/04/12 05:35:39;;;;;;;15.20;4.50;;;;;;;15.44;64.77;100009.34;79314;1295;3012873;-62
2024/04/12 05:38:09;;;;;;;12.40;4.30;;;;;;;15.39;64.60;100009.30;79436;1294;3012023;-62
2024/04/12 05:40:45;;;;;;;12.40;4.50;;;;;;;15.51;64.53;100004.08;78337;1298;3050832;-62
2024/04/12 05:43:13;;;;;;;10.30;4.90;;;;;;;15.54;64.27;100008.05;78196;1295;3050875;-61
2024/04/12 05:45:47;;;;;;;15.30;5.10;;;;;;;15.53;64.47;100002.88;79739;1298;3013473;-61
2024/04/12 05:48:19;;;;;;;10.70;4.60;;;;;;;15.56;64.34;100009.49;78375;1296;3053607;-61
2024/04/12 05:50:48;;;;;;;14.90;5.10;;;;;;;15.68;63.93;100006.88;79453;1295;3011549;-62
2024/04/12 05:53:17;;;;;;;13.20;4.50;;;;;;;15.64;63.89;100010.18;78365;1298;3049570;-60
2024/04/12 05:55:44;;;;;;;19.70;5.20;;;;;;;15.77;63.80;100008.58;79456;1296;3011800;-62
2024/04/12 05:58:15;;;;;;;19.60;4.90;;;;;;;15.92;63.11;100007.27;79484;1295;3011899;-63
2024/04/12 06:00:47;;;;;;;14.60;5.60;;;;;;;15.91;62.84;100011.56;78238;1298;3051831;-63
2024/04/12 06:03:14;;;;;;;21.60;6.40;;;;;;;15.98;62.26;100008.92;79452;1298;3011594;-62
2024/04/12 06:05:46;;;;;;;14.50;5.70;;;;;;;16.02;62.15;100011.99;78911;1295;3011553;-62
2024/04/12 06:08:13;;;;;;;11.20;5.70;;;;;;;16.10;61.77;100011.73;79433;1294;3011565;-60
2024/04/12 06:10:44;;;;;;;10.80;4.60;;;;;;;16.28;60.96;100005.47;78970;1295;3013157;-61
2024/04/12 06:13:11;;;;;;;9.80;4.30;;;;;;;16.40;60.46;100008.66;79533;1295;3013460;-60
2024/04/12 06:15:38;;;;;;;15.10;4.40;;;;;;;16.33;59.92;100014.98;79875;1295;3011518;-60
2024/04/12 06:18:08;;;;;;;12.70;4.50;;;;;;;16.37;59.95;100014.20;78270;1295;3052944;-61
2024/04/12 06:20:35;;;;;;;11.90;4.10;;;;;;;16.43;59.39;100012.11;79816;1294;3011160;-60
2024/04/12 06:23:09;;;;;;;16.50;4.30;;;;;;;16.45;59.22;100010.89;79123;1295;3013482;-60
2024/04/12 06:25:43;;;;;;;11.50;4.40;;;;;;;16.41;59.10;100008.35;79743;1294;3013481;-58
2024/04/12 06:28:12;;;;;;;;;;;;;;;16.38;59.20;100006.98;78633;1295;3049667;-63
2024/04/12 06:30:41;;;;;;;8.90;4.70;;;;;;;16.41;59.42;100000.59;80576;1295;3012865;-61
2024/04/12 06:33:12;;;;;;;9.60;4.20;;;;;;;16.58;59.28;99996.60;78379;1295;3051852;-65
2024/04/12 06:35:40;;;;;;;16.50;4.60;;;;;;;16.74;59.06;99992.42;79959;1295;3011847;-61
2024/04/12 06:38:08;;;;;;;9.30;3.90;;;;;;;16.86;58.00;99996.48;78474;1295;3026529;-61
2024/04/12 06:40:37;;;;;;;18.50;4.30;;;;;;;16.95;58.06;99992.73;79524;1295;3012881;-64
2024/04/12 06:43:06;;;;;;;12.00;4.30;;;;;;;16.96;57.88;99996.52;79193;1295;3013879;-62
2024/04/12 06:45:44;;;;;;;13.40;4.50;;;;;;;16.93;58.24;100002.45;79448;1298;3013111;-58
2024/04/12 06:48:16;;;;;;;11.80;4.00;;;;;;;17.07;58.03;99997.59;78114;1298;3053242;-62
2024/04/12 06:50:56;;;;;;;15.70;4.80;;;;;;;17.10;58.45;100005.89;79267;1294;3011694;-63
2024/04/12 06:53:24;;;;;;;16.90;4.70;;;;;;;17.20;58.15;100008.48;78305;1298;3052816;-61
2024/04/12 06:55:58;;;;;;;12.80;4.50;;;;;;;17.30;58.06;100008.91;79464;1298;3013888;-61
2024/04/12 06:58:26;;;;;;;;;;;;;;;17.33;57.55;100007.23;78219;1294;3052242;-61
2024/04/12 07:00:56;;;;;;;13.30;4.00;;;;;;;17.31;57.72;100005.25;79604;1298;3013041;-62
2024/04/12 07:03:24;;;;;;;19.70;4.10;;;;;;;17.45;57.07;100002.60;78395;1295;3052579;-62
2024/04/12 07:05:54;;;;;;;19.70;4.30;;;;;;;17.59;56.97;100005.00;79641;1298;3019142;-62
2024/04/12 07:08:26;;;;;;;16.40;4.70;;;;;;;17.65;56.76;100002.78;79037;1295;3013240;-62
2024/04/12 07:10:53;;;;;;;13.10;4.10;;;;;;;17.63;56.64;100006.25;79671;1295;3011480;-61
2024/04/12 07:13:27;;;;;;;9.60;3.60;;;;;;;17.70;56.48;99999.17;78963;1298;3011815;-58
2024/04/12 07:15:56;;;;;;;11.30;3.90;;;;;;;17.78;56.20;100000.22;79480;1294;3011550;-62
2024/04/12 07:18:29;;;;;;;15.40;4.80;;;;;;;17.92;55.64;99999.11;78047;1298;3057663;-60
2024/04/12 07:21:14;;;;;;;9.50;4.60;;;;;;;18.10;55.12;100003.52;79634;1295;3013838;-61
2024/04/12 07:23:46;;;;;;;13.00;4.30;;;;;;;18.24;54.86;100000.34;78296;1298;3051011;-60
2024/04/12 07:26:26;;;;;;;10.90;4.40;;;;;;;18.34;54.30;100002.24;79387;1298;3012747;-58
2024/04/12 07:29:02;;;;;;;14.70;4.10;;;;;;;18.47;54.15;99999.27;78083;1295;3053003;-60
2024/04/12 07:31:34;;;;;;;10.40;4.00;;;;;;;18.65;53.83;100003.10;78197;1296;3068601;-61
2024/04/12 07:34:05;;;;;;;15.60;4.20;;;;;;;18.75;53.49;99996.73;79351;1295;3012222;-59
2024/04/12 07:36:34;;;;;;;13.00;4.40;;;;;;;18.85;52.95;99991.63;78478;1298;3057079;-61
2024/04/12 07:39:02;;;;;;;13.90;4.40;;;;;;;18.90;52.52;99997.73;79519;1295;3013042;-59
2024/04/12 07:41:43;;;;;;;11.90;3.70;;;;;;;18.93;52.63;99994.52;79042;1295;3011853;-61
2024/04/12 07:44:14;;;;;;;12.90;3.90;;;;;;;19.00;52.11;99998.55;78162;1295;3050045;-59
2024/04/12 07:46:49;;;;;;;19.20;4.80;;;;;;;19.03;51.67;99992.39;79295;1298;3011929;-60
2024/04/12 07:49:18;;;;;;;15.10;3.80;;;;;;;19.07;51.55;99990.50;78155;1298;3053837;-61
2024/04/12 07:51:45;;;;;;;16.60;4.10;;;;;;;19.13;51.28;99987.48;79534;1298;3018401;-62
2024/04/12 07:54:12;;;;;;;12.40;4.30;;;;;;;19.25;50.72;99984.13;80072;1296;3011589;-64
2024/04/12 07:56:43;;;;;;;6.00;3.70;;;;;;;19.31;50.18;99986.57;78921;1298;3027605;-59
2024/04/12 07:59:24;;;;;;;13.20;4.00;;;;;;;19.46;49.58;99977.45;79633;1298;3013658;-61
2024/04/12 08:01:53;;;;;;;8.90;3.60;;;;;;;19.68;48.99;99976.86;78182;1301;3048905;-59
2024/04/12 08:04:36;;;;;;;12.20;3.70;;;;;;;19.67;48.20;99989.94;79458;1295;3013094;-61
2024/04/12 08:07:13;;;;;;;16.30;3.80;;;;;;;19.59;47.85;99980.17;78035;1298;3069436;-60
2024/04/12 08:10:09;;;;;;;11.40;3.90;;;;;;;19.68;47.72;99981.84;78521;1295;3053243;-61
2024/04/12 08:12:36;;;;;;;11.50;3.30;;;;;;;19.95;47.34;99974.25;78240;1298;3056922;-61
2024/04/12 08:15:14;;;;;;;15.70;4.20;;;;;;;20.12;46.50;99976.99;79332;1295;3013725;-62
2024/04/12 08:17:48;;;;;;;16.00;3.50;;;;;;;20.28;45.85;99970.67;78105;1298;3050897;-61
2024/04/12 08:20:25;;;;;;;7.80;3.40;;;;;;;20.31;45.04;99975.36;79699;1298;3011325;-61
2024/04/12 08:22:53;;;;;;;12.80;3.30;;;;;;;20.26;45.05;99974.77;78325;1295;3051331;-59
2024/04/12 08:25:26;;;;;;;10.40;3.90;;;;;;;20.26;45.10;99981.91;79409;1296;3013364;-61
2024/04/12 08:27:54;;;;;;;12.70;3.20;;;;;;;20.26;45.20;99982.48;78176;1295;3057728;-60
2024/04/12 08:30:22;;;;;;;5.80;2.70;;;;;;;20.31;44.52;99978.45;79497;1295;3013353;-60
2024/04/12 08:32:48;;;;;;;15.60;3.30;;;;;;;20.30;44.49;99979.46;79353;1297;3013528;-60
2024/04/12 08:35:19;;;;;;;11.60;3.30;;;;;;;20.40;44.27;99976.86;78308;1298;3026446;-61
2024/04/12 08:37:47;;;;;;;12.20;3.50;;;;;;;20.63;43.65;99967.46;79550;1298;3012695;-61
2024/04/12 08:40:19;;;;;;;15.70;2.80;;;;;;;20.70;42.89;99967.17;78333;1301;3026192;-62
2024/04/12 08:42:47;;;;;;;7.60;2.70;;;;;;;20.58;42.83;99964.86;79366;1295;3011634;-60
2024/04/12 08:45:17;;;;;;;11.00;2.90;;;;;;;20.75;42.58;99960.38;78169;1296;3055921;-62
2024/04/12 08:47:51;;;;;;;9.10;2.60;;;;;;;20.79;41.51;99960.06;79358;1296;3011660;-63
2024/04/12 08:50:24;;;;;;;13.00;2.90;;;;;;;20.95;41.24;99955.02;78080;1296;3053615;-62
2024/04/12 08:52:53;;;;;;;8.00;2.70;;;;;;;21.23;40.70;99955.17;79321;1295;3011607;-61
2024/04/12 08:55:23;;;;;;;10.10;2.80;;;;;;;21.35;40.06;99960.41;78826;1298;3052332;-59
2024/04/12 08:58:00;;;;;;;5.90;2.60;;;;;;;21.45;39.89;99956.38;79559;1298;3012954;-60
2024/04/12 09:00:32;;;;;;;11.00;2.30;;;;;;;21.40;39.63;99956.52;79292;1294;3069466;-61
2024/04/12 09:03:02;;;;;;;9.90;2.20;;;;;;;21.39;39.48;99956.23;79247;1297;3011860;-61
2024/04/12 09:05:35;;;;;;;15.00;2.30;;;;;;;21.54;39.53;99945.85;79125;1295;3057300;-61
2024/04/12 09:08:03;;;;;;;10.40;2.40;;;;;;;21.65;38.99;99951.71;80053;1295;3011907;-62
2024/04/12 09:10:35;;;;;;;8.60;2.20;;;;;;;21.57;39.18;99947.50;78277;1298;3053665;-62
2024/04/12 09:13:09;;;;;;;8.30;2.30;;;;;;;21.64;38.92;99945.08;79482;1294;3012050;-62
2024/04/12 09:15:43;;;;;;;9.70;2.40;;;;;;;21.68;38.69;99932.25;78332;1298;3052241;-59
2024/04/12 09:18:14;;;;;;;9.60;2.40;;;;;;;21.90;38.41;99934.04;79432;1298;3011520;-61
2024/04/12 09:20:52;;;;;;;8.40;2.20;;;;;;;21.85;38.51;99946.52;78468;1296;3068043;-61
2024/04/12 09:23:32;;;;;;;6.00;2.30;;;;;;;21.54;38.71;99939.80;78333;1298;3052041;-62
2024/04/12 09:26:21;;;;;;;9.90;2.50;;;;;;;21.79;38.46;99929.54;78187;1294;3057616;-58
2024/04/12 09:28:56;;;;;;;6.70;1.90;;;;;;;22.00;38.13;99925.60;78308;1298;3049451;-62
2024/04/12 09:34:29;;;;;;;5.90;2.20;;;;;;;22.09;37.65;99933.23;78339;1297;3049854;-61
2024/04/12 09:37:02;;;;;;;8.80;1.90;;;;;;;21.95;37.71;99928.73;78081;1298;3052750;-63
2024/04/12 09:39:57;;;;;;;10.30;2.10;;;;;;;21.78;37.85;99935.83;79438;1298;3013131;-61
2024/04/12 09:42:19;;;;;;;4.50;2.00;;;;;;;21.72;37.77;99926.13;78846;1295;3069675;-61
2024/04/12 09:44:49;;;;;;;8.20;2.10;;;;;;;21.73;37.73;99928.98;79706;1298;3012866;-60
2024/04/12 10:37:48;;;;;;;5.30;2.20;;;;;;;23.02;34.29;99886.38;78331;1297;3050490;-60
2024/04/12 10:40:16;;;;;;;7.00;2.10;;;;;;;23.12;34.04;99882.52;79602;1297;3013562;-61
2024/04/12 10:42:46;;;;;;;6.50;1.80;;;;;;;23.02;33.72;99892.04;79930;1292;3011690;-58
2024/04/12 10:45:15;;;;;;;9.20;2.20;;;;;;;22.92;34.01;99885.80;78520;1298;3052166;-62
2024/04/12 10:47:47;;;;;;;6.80;1.80;;;;;;;22.91;33.85;99880.87;79901;1295;3012847;-59
2024/04/12 10:50:15;;;;;;;9.80;2.30;;;;;;;23.07;33.59;99875.25;78357;1298;3052506;-59
2024/04/12 10:52:43;;;;;;;5.40;2.40;;;;;;;23.34;33.26;99868.30;79765;1298;3013284;-61
2024/04/12 10:55:09;;;;;;;6.20;1.80;;;;;;;23.59;32.80;99869.23;79700;1296;3011630;-61
2024/04/12 10:57:44;;;;;;;5.50;1.80;;;;;;;23.22;32.58;99874.75;78503;1295;3069048;-61
2024/04/12 11:00:14;;;;;;;3.90;1.90;;;;;;;23.21;32.77;99872.04;79097;1293;3011590;-61
2024/04/12 11:02:44;;;;;;;11.60;2.20;;;;;;;23.09;32.88;99871.36;79825;1293;3012754;-60
2024/04/12 11:07:53;;;;;;;7.50;1.90;;;;;;;23.15;33.35;99863.59;79474;1294;3011593;-61
2024/04/12 11:10:25;;;;;;;8.00;2.40;;;;;;;23.18;32.85;99865.93;78617;1298;3052371;-61
2024/04/12 11:13:10;;;;;;;14.10;2.10;;;;;;;23.30;32.56;99856.78;79502;1298;3013044;-61
2024/04/12 11:32:12;;;;;;;10.20;1.60;;;;;;;23.15;31.46;99837.65;78233;1297;3050549;-61
2024/04/12 11:34:45;;;;;;;7.80;2.40;;;;;;;23.03;31.49;99836.94;78423;1297;3051784;-61
2024/04/12 11:37:13;;;;;;;8.20;2.00;;;;;;;22.95;31.65;99840.45;79793;1295;3011742;-59
2024/04/12 11:39:41;;;;;;;11.50;2.00;;;;;;;22.92;31.66;99830.13;78320;1298;3069946;-61
2024/04/12 11:42:11;;;;;;;5.40;2.00;;;;;;;22.86;31.47;99832.86;79503;1298;3013366;-60
2024/04/12 11:44:44;;;;;;;7.00;1.40;;;;;;;22.97;31.42;99819.59;79335;1298;3011774;-61
2024/04/12 11:47:11;;;;;;;5.50;1.80;;;;;;;22.90;30.68;99827.75;79536;1298;3011674;-60
2024/04/12 11:49:41;;;;;;;11.20;1.70;;;;;;;22.94;30.70;99823.64;78335;1292;3026976;-60
2024/04/12 11:52:18;;;;;;;7.50;1.60;;;;;;;23.09;30.26;99818.08;79860;1297;3011413;-62
2024/04/12 11:54:51;;;;;;;9.30;1.80;;;;;;;23.11;30.29;99810.75;78652;1295;3052847;-60
2024/04/12 11:57:19;;;;;;;;;;;;;;;23.30;30.00;99806.95;79535;1297;3011558;-61
2024/04/12 11:59:47;;;;;;;9.40;1.90;;;;;;;23.37;29.71;99808.33;78474;1292;3067269;-60
2024/04/12 12:02:14;;;;;;;11.80;1.70;;;;;;;23.47;29.59;99809.23;79557;1295;3018784;-60
2024/04/12 12:04:41;;;;;;;15.50;2.30;;;;;;;23.53;29.45;99805.17;79655;1297;3011756;-59
2024/04/12 12:07:09;;;;;;;10.10;1.70;;;;;;;23.57;29.28;99798.05;78497;1298;3053435;-59
2024/04/12 12:09:36;;;;;;;7.30;1.40;;;;;;;23.78;28.82;99808.05;79785;1297;3018767;-60
2024/04/12 12:12:10;;;;;;;9.60;2.10;;;;;;;23.57;28.65;99801.45;79460;1298;3012170;-60
2024/04/12 12:14:41;;;;;;;6.00;1.70;;;;;;;23.43;28.57;99797.97;78240;1292;3068868;-60
2024/04/12 12:17:09;;;;;;;6.60;1.80;;;;;;;23.59;28.38;99787.70;79634;1294;3012906;-60
2024/04/12 12:19:37;;;;;;;8.40;1.90;;;;;;;23.56;28.08;99791.02;78462;1298;3057614;-60
2024/04/12 12:22:09;;;;;;;10.80;1.70;;;;;;;23.40;28.04;99792.45;79696;1296;3018970;-58
2024/04/12 12:24:37;;;;;;;5.90;1.50;;;;;;;23.26;27.95;99791.67;78182;1300;3049701;-59
2024/04/12 12:27:08;;;;;;;6.70;1.50;;;;;;;23.18;27.94;99790.73;79543;1297;3020773;-58
2024/04/12 12:29:37;;;;;;;3.50;1.40;;;;;;;23.24;27.91;99788.96;78303;1297;3070178;-60
2024/04/12 12:32:04;;;;;;;5.50;1.70;;;;;;;23.02;27.93;99785.29;79638;1295;3013641;-62
2024/04/12 12:34:34;;;;;;;6.60;1.70;;;;;;;23.12;28.00;99785.66;79605;1294;3011596;-58
2024/04/12 12:37:04;;;;;;;4.00;1.70;;;;;;;23.31;27.70;99779.52;78424;1298;3053560;-61
2024/04/12 12:39:31;;;;;;;13.90;1.50;;;;;;;23.45;27.45;99779.88;79792;1298;3011772;-58